This is the latest recevied weather packets stored in our database for station/object KC8QDR-1. If no packets are shown the sender has not sent any weather packets the latest 10 day(s).
| Time | Temp. | Humidity | Pressure | Rain* | Wind** | Luminosity | Snow |
|---|---|---|---|---|---|---|---|
| 1777862926 | 8.33° C | 75% | 1017.4 hPa | 0 mm | 0 m/s | - | - |
| 1777862325 | 8.33° C | 76% | 1017.5 hPa | 0 mm | 0.45 m/s, 199° | - | - |
| 1777861725 | 8.33° C | 74% | 1017.4 hPa | 0 mm | 0.89 m/s, 193° | - | - |
| 1777861125 | 8.33° C | 74% | 1017.4 hPa | 0 mm | 0.45 m/s, 190° | - | - |
| 1777860524 | 8.89° C | 73% | 1017.4 hPa | 0 mm | 0 m/s | - | - |
| 1777859925 | 9.44° C | 70% | 1017.4 hPa | 0 mm | 0.45 m/s, 177° | - | - |
| 1777859325 | 10° C | 68% | 1017.3 hPa | 0 mm | 0.45 m/s, 193° | - | - |
| 1777858724 | 10.56° C | 66% | 1017.2 hPa | 0 mm | 0.89 m/s, 191° | - | - |
| 1777858124 | 11.11° C | 63% | 1017.3 hPa | 0 mm | 0.45 m/s, 206° | - | - |
| 1777857525 | 11.67° C | 57% | 1017.4 hPa | 0 mm | 1.34 m/s, 193° | - | - |
| 1777856924 | 12.22° C | 55% | 1017.4 hPa | 0 mm | 0.45 m/s, 190° | - | - |
| 1777856325 | 12.78° C | 53% | 1017.3 hPa | 0 mm | 0.45 m/s, 194° | - | - |
| 1777855726 | 12.78° C | 53% | 1017.4 hPa | 0 mm | 0 m/s | - | - |
| 1777855124 | 13.33° C | 51% | 1017.5 hPa | 0 mm | 1.79 m/s, 218° | - | - |
| 1777854524 | 13.33° C | 51% | 1017.9 hPa | 0 mm | 0.89 m/s, 206° | - | - |
| 1777853925 | 13.33° C | 51% | 1018.2 hPa | 0 mm | 1.79 m/s, 182° | - | - |
| 1777853324 | 13.89° C | 49% | 1018.2 hPa | 0 mm | 0 m/s | - | - |
| 1777852725 | 13.89° C | 48% | 1018.2 hPa | 0 mm | 2.24 m/s, 196° | - | - |
| 1777852124 | 13.89° C | 49% | 1018.1 hPa | 0 mm | 1.34 m/s, 196° | - | - |
| 1777851524 | 14.44° C | 47% | 1018.3 hPa | 0 mm | 0.89 m/s, 196° | - | - |
| 1777850924 | 14.44° C | 46% | 1018.2 hPa | 0 mm | 0.89 m/s, 180° | - | - |
| 1777850325 | 14.44° C | 46% | 1018.2 hPa | 0 mm | 0 m/s | - | - |
| 1777849724 | 14.44° C | 45% | 1018.3 hPa | 0 mm | 1.79 m/s, 210° | - | - |
| 1777849125 | 14.44° C | 46% | 1018.2 hPa | 0 mm | 2.24 m/s, 215° | - | - |
| 1777848524 | 15° C | 44% | 1018.2 hPa | 0 mm | 2.68 m/s, 232° | - | - |
* Rain latest hour (hover to see other rain measurements)
** Current wind speed in m/s (hover to see current wind gust speed)